createdAt,value
2022-10-11T00:01:51.611Z,100788.25
2022-10-11T00:04:19.675Z,100786.31
2022-10-11T00:06:47.298Z,100776.72
2022-10-11T00:09:14.703Z,100778.91
2022-10-11T00:11:41.142Z,100776.72
2022-10-11T00:14:08.250Z,100784.84
2022-10-11T00:16:35.046Z,100783.16
2022-10-11T00:19:01.480Z,100775.28
2022-10-11T00:21:28.027Z,100782.19
2022-10-11T00:23:54.848Z,100788.94
2022-10-11T00:26:21.348Z,100788.59
2022-10-11T00:28:47.947Z,100779.97
2022-10-11T00:31:16.557Z,100786.50
2022-10-11T00:33:42.987Z,100781.44
2022-10-11T00:36:10.136Z,100777.66
2022-10-11T00:38:38.353Z,100779.59
2022-10-11T00:41:05.156Z,100774.66
2022-10-11T00:43:32.498Z,100773.00
2022-10-11T00:46:04.306Z,100769.22
2022-10-11T00:48:57.269Z,100771.41
2022-10-11T00:51:32.396Z,100778.41
2022-10-11T00:54:00.913Z,100775.16
2022-10-11T00:56:31.290Z,100784.88
2022-10-11T00:59:00.379Z,100786.59
2022-10-11T01:01:27.219Z,100782.00
2022-10-11T01:03:54.014Z,100786.03
2022-10-11T01:06:20.740Z,100780.66
2022-10-11T01:08:47.283Z,100781.75
2022-10-11T01:11:15.959Z,100788.59
2022-10-11T01:14:00.030Z,100781.47
2022-10-11T01:16:33.518Z,100774.38
2022-10-11T01:19:16.309Z,100781.34
2022-10-11T01:21:47.881Z,100777.72
2022-10-11T01:24:26.220Z,100776.38
2022-10-11T01:27:25.493Z,100785.97
2022-10-11T01:30:04.415Z,100786.66
2022-10-11T01:32:40.847Z,100792.69
2022-10-11T01:35:16.640Z,100790.19
2022-10-11T01:38:03.809Z,100785.09
2022-10-11T01:40:41.654Z,100781.66
2022-10-11T01:43:09.943Z,100789.59
2022-10-11T01:45:37.230Z,100791.78
2022-10-11T01:48:09.178Z,100794.06
2022-10-11T01:50:44.218Z,100786.22
2022-10-11T01:53:15.010Z,100796.50
2022-10-11T01:55:53.880Z,100786.28
2022-10-11T01:58:41.701Z,100791.88
2022-10-11T02:01:27.174Z,100791.22
2022-10-11T02:04:03.482Z,100782.34
2022-10-11T02:06:37.834Z,100785.69
2022-10-11T02:09:22.302Z,100789.66
2022-10-11T02:11:48.815Z,100791.34
2022-10-11T02:14:23.686Z,100789.53
2022-10-11T02:16:58.503Z,100794.53
2022-10-11T02:19:29.320Z,100796.06
2022-10-11T02:22:07.716Z,100802.22
2022-10-11T02:24:36.633Z,100802.72
2022-10-11T02:27:04.369Z,100795.06
2022-10-11T02:29:33.276Z,100801.19
2022-10-11T02:32:00.612Z,100806.69
2022-10-11T02:34:40.688Z,100813.84
2022-10-11T02:37:26.848Z,100812.34
2022-10-11T02:39:56.724Z,100809.06
2022-10-11T02:42:29.847Z,100805.34
2022-10-11T02:45:01.129Z,100808.66
2022-10-11T02:47:29.878Z,100815.13
2022-10-11T02:49:56.568Z,100820.63
2022-10-11T02:52:22.975Z,100828.03
2022-10-11T02:54:49.703Z,100827.44
2022-10-11T02:57:16.202Z,100830.81
2022-10-11T02:59:42.970Z,100825.56
2022-10-11T03:02:10.181Z,100820.75
2022-10-11T03:04:38.814Z,100828.06
2022-10-11T03:07:05.317Z,100826.44
2022-10-11T03:09:31.742Z,100837.97
2022-10-11T03:11:58.511Z,100836.97
2022-10-11T03:14:25.130Z,100839.28
2022-10-11T03:16:52.126Z,100838.19
2022-10-11T03:19:19.537Z,100832.81
2022-10-11T03:21:46.268Z,100851.28
2022-10-11T03:24:12.913Z,100847.31
2022-10-11T03:26:39.729Z,100847.44
2022-10-11T03:29:07.462Z,100851.06
2022-10-11T03:31:33.961Z,100857.19
2022-10-11T03:34:00.752Z,100854.34
2022-10-11T03:36:27.251Z,100852.28
2022-10-11T03:38:55.083Z,100858.66
2022-10-11T03:41:21.649Z,100855.75
2022-10-11T03:43:48.178Z,100865.66
2022-10-11T03:46:15.338Z,100861.28
2022-10-11T03:48:41.808Z,100860.28
2022-10-11T03:51:08.659Z,100865.78
2022-10-11T03:53:35.161Z,100869.19
2022-10-11T03:56:07.388Z,100885.75
2022-10-11T03:58:34.855Z,100884.75
2022-10-11T04:01:01.290Z,100881.69
2022-10-11T04:03:27.784Z,100886.06
2022-10-11T04:05:55.443Z,100886.44
2022-10-11T04:08:22.210Z,100893.75
2022-10-11T04:10:48.744Z,100893.66
2022-10-11T04:13:16.988Z,100891.13
2022-10-11T04:15:43.768Z,100891.13
2022-10-11T04:18:10.391Z,100898.72
2022-10-11T04:20:36.862Z,100901.78
2022-10-11T04:23:03.597Z,100906.63
2022-10-11T04:25:30.041Z,100895.41
2022-10-11T04:27:56.637Z,100906.19
2022-10-11T04:30:23.163Z,100911.38
2022-10-11T04:32:49.629Z,100919.69
2022-10-11T04:35:16.422Z,100920.03
2022-10-11T04:37:42.899Z,100914.75
2022-10-11T04:40:10.196Z,100925.19
2022-10-11T04:42:36.627Z,100929.69
2022-10-11T04:45:03.118Z,100944.16
2022-10-11T04:47:29.619Z,100951.31
2022-10-11T04:49:56.161Z,100955.59
2022-10-11T04:52:25.671Z,100960.25
2022-10-11T04:54:52.534Z,100964.09
2022-10-11T04:57:19.283Z,100966.81
2022-10-11T04:59:49.979Z,100965.41
2022-10-11T05:02:16.911Z,100976.91
2022-10-11T05:04:43.420Z,100980.22
2022-10-11T05:07:09.843Z,100983.47
2022-10-11T05:09:36.347Z,100991.06
2022-10-11T05:12:02.941Z,100995.56
2022-10-11T05:14:29.383Z,100996.22
2022-10-11T05:16:55.970Z,101002.28
2022-10-11T05:19:22.735Z,101011.06
2022-10-11T05:21:49.219Z,101018.41
2022-10-11T05:24:15.740Z,101021.78
2022-10-11T05:26:42.791Z,101026.88
2022-10-11T05:29:09.239Z,101028.34
2022-10-11T05:31:36.731Z,101036.03
2022-10-11T05:34:03.222Z,101037.97
2022-10-11T05:36:29.666Z,101041.81
2022-10-11T05:38:56.499Z,101052.91
2022-10-11T05:41:22.972Z,101056.97
2022-10-11T05:43:49.468Z,101057.41
2022-10-11T05:46:15.946Z,101060.19
2022-10-11T05:48:42.477Z,101063.56
2022-10-11T05:51:10.438Z,101066.19
2022-10-11T05:53:38.917Z,101071.28
2022-10-11T05:56:06.158Z,101073.19
2022-10-11T05:58:36.721Z,101077.97
2022-10-11T06:01:03.531Z,101087.53
2022-10-11T06:03:30.015Z,101080.47
2022-10-11T06:05:57.456Z,101089.16
2022-10-11T06:08:24.068Z,101091.53
2022-10-11T06:10:50.492Z,101100.56
2022-10-11T06:13:17.031Z,101105.66
2022-10-11T06:15:43.559Z,101098.84
2022-10-11T06:18:09.985Z,101117.22
2022-10-11T06:20:36.754Z,101112.72
2022-10-11T06:23:04.584Z,101125.81
2022-10-11T06:25:31.011Z,101123.91
2022-10-11T06:27:57.499Z,101128.53
2022-10-11T06:30:24.309Z,101127.09
2022-10-11T06:32:50.874Z,101135.56
2022-10-11T06:35:17.414Z,101136.09
2022-10-11T06:37:43.879Z,101146.03
2022-10-11T06:40:10.836Z,101149.22
2022-10-11T06:42:37.587Z,101149.59
2022-10-11T06:45:04.502Z,101156.41
2022-10-11T06:47:30.948Z,101165.16
2022-10-11T06:49:59.442Z,101158.59
2022-10-11T06:52:25.994Z,101171.06
2022-10-11T06:54:52.541Z,101179.56
2022-10-11T06:57:19.213Z,101171.34
2022-10-11T06:59:45.741Z,101185.88
2022-10-11T07:02:12.163Z,101174.84
2022-10-11T07:04:40.119Z,101166.19
2022-10-11T07:07:06.595Z,101176.72
2022-10-11T07:09:34.265Z,101185.13
2022-10-11T07:12:01.016Z,101188.81
2022-10-11T07:14:28.207Z,101196.56
2022-10-11T07:16:54.718Z,101196.53
2022-10-11T07:19:22.909Z,101208.41
2022-10-11T07:22:08.128Z,101202.72
2022-10-11T07:24:34.958Z,101216.63
2022-10-11T07:27:01.675Z,101210.09
2022-10-11T07:29:28.170Z,101216.50
2022-10-11T07:31:54.968Z,101215.41
2022-10-11T07:34:22.820Z,101212.97
2022-10-11T07:36:49.652Z,101209.88
2022-10-11T07:39:16.216Z,101221.06
2022-10-11T07:41:45.822Z,101227.44
2022-10-11T07:44:12.667Z,101232.50
2022-10-11T07:46:39.107Z,101224.81
2022-10-11T07:49:05.545Z,101226.59
2022-10-11T07:51:32.927Z,101238.88
2022-10-11T07:54:03.382Z,101232.34
2022-10-11T07:56:32.806Z,101236.31
2022-10-11T07:59:03.410Z,101236.06
2022-10-11T08:01:30.498Z,101245.03
2022-10-11T08:03:57.272Z,101242.00
2022-10-11T08:06:31.826Z,101245.25
2022-10-11T08:09:00.386Z,101254.41
2022-10-11T08:11:32.631Z,101246.47
2022-10-11T08:14:00.038Z,101247.47
2022-10-11T08:16:27.540Z,101250.72
2022-10-11T08:18:59.308Z,101254.13
2022-10-11T08:21:26.885Z,101257.44
2022-10-11T08:23:54.412Z,101263.50
2022-10-11T08:26:23.702Z,101267.56
2022-10-11T08:28:53.580Z,101270.19
2022-10-11T08:31:20.352Z,101267.00
2022-10-11T08:33:46.836Z,101263.44
2022-10-11T08:36:13.447Z,101277.13
2022-10-11T08:38:40.078Z,101271.59
2022-10-11T08:41:40.324Z,101277.38
2022-10-11T08:44:25.417Z,101297.25
2022-10-11T08:47:01.511Z,101284.56
2022-10-11T08:49:30.234Z,101295.66
2022-10-11T08:52:04.905Z,101299.50
2022-10-11T08:54:38.712Z,101300.25
2022-10-11T08:57:06.315Z,101302.78
2022-10-11T08:59:49.447Z,101302.25
2022-10-11T09:03:07.017Z,101303.00
2022-10-11T09:05:35.160Z,101303.72
2022-10-11T09:08:13.716Z,101310.13
2022-10-11T09:10:51.663Z,101309.03
2022-10-11T09:13:49.529Z,101321.22
2022-10-11T09:16:33.600Z,101321.00
2022-10-11T09:19:38.729Z,101319.94
2022-10-11T09:22:38.368Z,101314.97
2022-10-11T09:25:19.094Z,101329.50
2022-10-11T09:28:17.749Z,101327.47
2022-10-11T09:30:49.135Z,101340.06
2022-10-11T09:33:34.651Z,101325.44
2022-10-11T09:36:01.997Z,101334.56
2022-10-11T09:38:38.955Z,101338.53
2022-10-11T09:41:56.330Z,101340.72
2022-10-11T09:44:24.670Z,101340.84
2022-10-11T09:46:51.707Z,101339.22
2022-10-11T09:49:20.430Z,101350.72
2022-10-11T09:51:51.339Z,101342.69
2022-10-11T09:54:18.442Z,101348.00
2022-10-11T09:56:46.188Z,101362.19
2022-10-11T09:59:29.257Z,101359.19
2022-10-11T10:02:08.016Z,101360.50
2022-10-11T10:04:36.080Z,101373.59
2022-10-11T10:07:13.236Z,101366.53
2022-10-11T10:09:39.690Z,101370.72
2022-10-11T10:12:12.874Z,101378.75
2022-10-11T10:14:40.664Z,101397.25
2022-10-11T10:17:15.285Z,101388.88
2022-10-11T10:19:48.440Z,101392.31
2022-10-11T10:22:18.321Z,101403.22
2022-10-11T10:24:44.857Z,101400.31
2022-10-11T10:27:14.374Z,101401.66
2022-10-11T10:29:41.273Z,101401.72
2022-10-11T10:32:15.781Z,101404.38
2022-10-11T10:34:55.558Z,101409.25
2022-10-11T10:37:29.468Z,101402.84
2022-10-11T10:40:21.999Z,101402.06
2022-10-11T10:42:50.232Z,101403.19
2022-10-11T10:45:21.459Z,101411.91
2022-10-11T10:47:59.801Z,101422.13
2022-10-11T10:50:42.469Z,101419.59
2022-10-11T10:53:21.146Z,101417.88
2022-10-11T10:56:11.234Z,101422.59
2022-10-11T10:58:37.598Z,101420.97
2022-10-11T11:01:20.702Z,101426.19
2022-10-11T11:03:58.705Z,101420.22
2022-10-11T11:06:35.658Z,101426.75
2022-10-11T11:09:18.770Z,101424.97
2022-10-11T11:11:48.194Z,101422.69
2022-10-11T11:14:34.504Z,101425.72
2022-10-11T11:17:22.213Z,101428.16
2022-10-11T11:20:17.583Z,101420.63
2022-10-11T11:22:53.547Z,101436.34
2022-10-11T11:25:34.861Z,101436.69
2022-10-11T11:28:18.541Z,101444.28
2022-10-11T11:31:04.320Z,101457.16
2022-10-11T11:34:07.937Z,101446.63
2022-10-11T11:36:46.734Z,101447.03
2022-10-11T11:39:17.610Z,101445.03
2022-10-11T11:41:48.865Z,101442.50
2022-10-11T11:44:50.384Z,101442.69
2022-10-11T11:47:36.968Z,101444.66
2022-10-11T11:50:15.116Z,101453.34
2022-10-11T11:52:45.883Z,101452.22
2022-10-11T11:55:23.317Z,101465.16
2022-10-11T11:57:49.879Z,101464.94
2022-10-11T12:00:21.349Z,101466.41
2022-10-11T12:02:58.678Z,101461.34
2022-10-11T12:05:33.684Z,101475.50
2022-10-11T12:08:09.834Z,101464.34
2022-10-11T12:10:54.590Z,101467.00
2022-10-11T12:13:32.567Z,101458.72
2022-10-11T12:16:03.502Z,101471.88
2022-10-11T12:18:31.323Z,101460.09
2022-10-11T12:21:04.002Z,101454.66
2022-10-11T12:23:30.506Z,101466.03
2022-10-11T12:26:20.528Z,101458.16
2022-10-11T12:29:19.095Z,101462.81
2022-10-11T12:31:48.269Z,101462.66
2022-10-11T12:34:33.238Z,101472.59
2022-10-11T12:37:04.506Z,101458.78
2022-10-11T12:39:49.407Z,101463.03
2022-10-11T12:42:38.125Z,101465.91
2022-10-11T12:45:13.602Z,101464.66
2022-10-11T12:47:54.632Z,101468.91
2022-10-11T12:50:34.704Z,101467.75
2022-10-11T12:53:17.797Z,101472.81
2022-10-11T12:56:36.884Z,101476.59
2022-10-11T12:59:04.886Z,101475.16
2022-10-11T13:01:48.502Z,101477.91
2022-10-11T13:04:17.465Z,101487.22
2022-10-11T13:06:47.515Z,101483.94
2022-10-11T13:09:24.458Z,101475.84
2022-10-11T13:11:55.662Z,101483.84
2022-10-11T13:14:24.782Z,101492.81
2022-10-11T13:17:00.028Z,101489.88
2022-10-11T13:19:27.484Z,101489.44
2022-10-11T13:21:57.174Z,101499.13
2022-10-11T13:24:24.731Z,101493.69
2022-10-11T13:26:55.259Z,101483.25
2022-10-11T13:29:31.012Z,101501.34
2022-10-11T13:31:57.522Z,101494.44
2022-10-11T13:34:24.361Z,101503.63
2022-10-11T13:36:58.120Z,101507.00
2022-10-11T13:39:42.902Z,101507.78
2022-10-11T13:42:12.879Z,101504.81
2022-10-11T13:44:40.239Z,101512.19
2022-10-11T13:47:06.777Z,101513.16
2022-10-11T13:49:40.404Z,101514.09
2022-10-11T13:52:22.019Z,101503.22
2022-10-11T13:55:00.916Z,101518.31
2022-10-11T13:57:45.225Z,101510.97
2022-10-11T14:00:14.670Z,101526.03
2022-10-11T14:02:50.103Z,101528.88
2022-10-11T14:05:29.809Z,101529.88
2022-10-11T14:07:59.364Z,101520.34
2022-10-11T14:10:26.092Z,101524.09
2022-10-11T14:13:23.870Z,101525.06
2022-10-11T14:16:03.424Z,101524.44
2022-10-11T14:18:48.628Z,101526.66
2022-10-11T14:21:46.823Z,101530.72
2022-10-11T14:24:14.543Z,101525.38
2022-10-11T14:26:43.032Z,101537.59
2022-10-11T14:29:17.882Z,101540.50
2022-10-11T14:31:44.376Z,101538.94
2022-10-11T14:34:21.709Z,101535.94
2022-10-11T14:36:48.866Z,101547.72
2022-10-11T14:39:20.494Z,101538.66
2022-10-11T14:41:47.085Z,101544.84
2022-10-11T14:44:14.208Z,101537.56
2022-10-11T14:46:41.294Z,101534.81
2022-10-11T14:49:16.530Z,101535.38
2022-10-11T14:51:44.426Z,101538.81
2022-10-11T14:54:11.097Z,101541.94
2022-10-11T14:56:38.082Z,101539.13
2022-10-11T14:59:04.713Z,101540.16
2022-10-11T15:01:31.279Z,101542.41
2022-10-11T15:03:57.765Z,101541.31
2022-10-11T15:06:30.521Z,101540.47
2022-10-11T15:08:56.984Z,101545.69
2022-10-11T15:11:24.169Z,101545.94
2022-10-11T15:13:50.628Z,101549.94
2022-10-11T15:16:19.235Z,101555.41
2022-10-11T15:18:53.260Z,101551.03
2022-10-11T15:21:22.023Z,101560.50
2022-10-11T15:23:51.805Z,101563.19
2022-10-11T15:26:21.180Z,101566.56
2022-10-11T15:28:48.417Z,101566.53
2022-10-11T15:31:15.269Z,101568.50
2022-10-11T15:33:42.109Z,101570.84
2022-10-11T15:36:12.819Z,101567.53
2022-10-11T15:38:39.399Z,101566.63
2022-10-11T15:41:06.165Z,101564.03
2022-10-11T15:43:32.584Z,101571.81
2022-10-11T15:45:59.153Z,101571.00
2022-10-11T15:48:26.612Z,101566.09
2022-10-11T15:50:53.940Z,101580.84
2022-10-11T15:53:23.142Z,101575.44
2022-10-11T15:55:52.653Z,101583.63
2022-10-11T15:58:22.964Z,101576.81
2022-10-11T16:00:54.020Z,101590.94
2022-10-11T16:03:22.582Z,101588.97
2022-10-11T16:05:49.309Z,101586.63
2022-10-11T16:08:15.966Z,101591.59
2022-10-11T16:10:42.429Z,101596.72
2022-10-11T16:13:09.430Z,101600.28
2022-10-11T16:15:40.707Z,101601.22
2022-10-11T16:18:14.901Z,101607.59
2022-10-11T16:20:44.602Z,101601.66
2022-10-11T16:23:13.927Z,101601.72
2022-10-11T16:25:41.213Z,101597.19
2022-10-11T16:28:08.109Z,101602.47
2022-10-11T16:30:38.843Z,101606.81
2022-10-11T16:33:05.515Z,101602.63
2022-10-11T16:35:32.789Z,101611.91
2022-10-11T16:38:00.536Z,101611.31
2022-10-11T16:40:28.206Z,101612.84
2022-10-11T16:42:54.688Z,101608.81
2022-10-11T16:45:21.179Z,101615.47
2022-10-11T16:47:48.098Z,101618.44
2022-10-11T16:50:14.706Z,101609.91
2022-10-11T16:52:41.238Z,101625.69
2022-10-11T16:55:07.993Z,101614.38
2022-10-11T16:57:34.495Z,101616.56
2022-10-11T17:00:00.916Z,101615.44
2022-10-11T17:02:31.507Z,101633.44
2022-10-11T17:04:58.927Z,101622.09
2022-10-11T17:07:25.668Z,101624.13
2022-10-11T17:09:52.188Z,101630.78
2022-10-11T17:12:21.328Z,101629.56
2022-10-11T17:14:48.637Z,101636.38
2022-10-11T17:17:15.679Z,101637.13
2022-10-11T17:19:45.322Z,101629.66
2022-10-11T17:22:13.476Z,101638.34
2022-10-11T17:24:39.984Z,101640.66
2022-10-11T17:27:06.947Z,101641.25
2022-10-11T17:29:33.501Z,101641.75
2022-10-11T17:31:59.990Z,101648.38
2022-10-11T17:34:26.822Z,101648.66
2022-10-11T17:36:53.295Z,101646.00
2022-10-11T17:39:22.359Z,101643.53
2022-10-11T17:41:49.313Z,101647.91
2022-10-11T17:44:18.427Z,101641.19
2022-10-11T17:46:45.262Z,101643.06
2022-10-11T17:49:12.591Z,101640.84
2022-10-11T17:51:40.062Z,101638.44
2022-10-11T17:54:06.823Z,101638.06
2022-10-11T17:56:37.581Z,101636.19
2022-10-11T17:59:04.553Z,101646.09
2022-10-11T18:01:31.149Z,101641.91
2022-10-11T18:04:16.948Z,101641.03
2022-10-11T18:06:45.218Z,101644.47
2022-10-11T18:09:12.657Z,101641.22
2022-10-11T18:11:39.165Z,101648.47
2022-10-11T18:14:05.669Z,101647.38
2022-10-11T18:16:34.835Z,101645.56
2022-10-11T18:19:03.199Z,101641.94
2022-10-11T18:21:34.360Z,101641.91
2022-10-11T18:24:07.783Z,101633.69
2022-10-11T18:26:34.354Z,101637.69
2022-10-11T18:29:00.795Z,101635.03
2022-10-11T18:31:29.246Z,101632.03
2022-10-11T18:33:55.918Z,101636.66
2022-10-11T18:36:25.670Z,101635.94
2022-10-11T18:38:54.227Z,101640.38
2022-10-11T18:41:22.184Z,101637.34
2022-10-11T18:43:53.807Z,101643.09
2022-10-11T18:46:21.204Z,101639.63
2022-10-11T18:48:49.630Z,101638.38
2022-10-11T18:51:20.114Z,101637.34
2022-10-11T18:53:47.607Z,101645.38
2022-10-11T18:56:15.442Z,101641.91
2022-10-11T18:58:43.001Z,101647.22
2022-10-11T19:01:12.320Z,101644.78
2022-10-11T19:03:38.918Z,101638.31
2022-10-11T19:06:08.424Z,101642.25
2022-10-11T19:08:35.204Z,101644.78
2022-10-11T19:11:06.568Z,101633.84
2022-10-11T19:13:33.679Z,101648.66
2022-10-11T19:16:11.274Z,101641.75
2022-10-11T19:18:43.185Z,101653.63
2022-10-11T19:21:12.449Z,101651.13
2022-10-11T19:23:43.498Z,101647.78
2022-10-11T19:26:33.770Z,101648.94
2022-10-11T19:29:04.059Z,101650.28
2022-10-11T19:31:30.927Z,101642.09
2022-10-11T19:34:00.578Z,101644.13
2022-10-11T19:36:28.416Z,101641.56
2022-10-11T19:38:56.997Z,101640.06
2022-10-11T19:41:24.519Z,101643.34
2022-10-11T19:43:51.564Z,101642.88
2022-10-11T19:46:32.381Z,101640.41
2022-10-11T19:49:07.005Z,101642.16
2022-10-11T19:51:34.799Z,101635.16
2022-10-11T19:54:03.591Z,101645.75
2022-10-11T19:56:31.423Z,101640.41
2022-10-11T19:58:58.091Z,101648.97
2022-10-11T20:01:26.200Z,101653.34
2022-10-11T20:03:55.479Z,101649.28
2022-10-11T20:06:23.414Z,101647.72
2022-10-11T20:09:10.362Z,101645.38
2022-10-11T20:11:37.586Z,101652.06
2022-10-11T20:14:04.305Z,101648.19
2022-10-11T20:16:30.816Z,101652.00
2022-10-11T20:19:00.793Z,101658.19
2022-10-11T20:21:29.537Z,101647.34
2022-10-11T20:24:01.402Z,101650.75
2022-10-11T20:26:29.048Z,101662.00
2022-10-11T20:28:56.491Z,101662.34
2022-10-11T20:31:27.719Z,101658.63
2022-10-11T20:33:56.114Z,101658.94
2022-10-11T20:36:23.523Z,101656.94
2022-10-11T20:38:50.790Z,101655.38
2022-10-11T20:41:18.657Z,101664.13
2022-10-11T20:43:46.662Z,101660.44
2022-10-11T20:46:14.946Z,101666.09
2022-10-11T20:48:41.741Z,101667.91
2022-10-11T20:51:09.371Z,101669.66
2022-10-11T20:53:37.612Z,101669.91
2022-10-11T20:56:05.385Z,101674.78
2022-10-11T20:58:31.811Z,101665.19
2022-10-11T21:00:58.382Z,101667.13
2022-10-11T21:03:24.867Z,101663.31
2022-10-11T21:05:59.006Z,101673.75
2022-10-11T21:08:25.664Z,101668.00
2022-10-11T21:10:53.610Z,101667.50
2022-10-11T21:13:20.239Z,101668.06
2022-10-11T21:15:46.710Z,101667.66
2022-10-11T21:18:13.514Z,101660.91
2022-10-11T21:20:43.575Z,101666.34
2022-10-11T21:23:10.624Z,101671.59
2022-10-11T21:25:37.715Z,101675.66
2022-10-11T21:28:05.010Z,101672.19
2022-10-11T21:30:33.728Z,101664.03
2022-10-11T21:33:00.310Z,101672.75
2022-10-11T21:35:27.947Z,101677.56
2022-10-11T21:37:55.650Z,101674.63
2022-10-11T21:40:22.197Z,101682.41
2022-10-11T21:42:48.625Z,101674.22
2022-10-11T21:45:15.093Z,101677.94
2022-10-11T21:47:43.587Z,101678.94
2022-10-11T21:50:10.216Z,101678.06
2022-10-11T21:52:37.027Z,101682.34
2022-10-11T21:55:03.880Z,101679.06
2022-10-11T21:57:30.363Z,101685.38
2022-10-11T21:59:56.813Z,101686.22
2022-10-11T22:02:23.231Z,101683.44
2022-10-11T22:04:49.671Z,101679.25
2022-10-11T22:07:16.436Z,101687.34
2022-10-11T22:09:42.856Z,101688.44
2022-10-11T22:12:09.298Z,101680.28
2022-10-11T22:14:35.771Z,101687.16
2022-10-11T22:17:02.216Z,101682.25
2022-10-11T22:19:28.645Z,101679.38
2022-10-11T22:21:55.081Z,101685.00
2022-10-11T22:24:21.509Z,101687.88
2022-10-11T22:26:48.060Z,101686.03
2022-10-11T22:29:14.532Z,101689.59
2022-10-11T22:31:41.412Z,101688.66
2022-10-11T22:34:07.870Z,101682.59
2022-10-11T22:36:34.330Z,101690.19
2022-10-11T22:39:00.755Z,101689.00
2022-10-11T22:41:27.250Z,101684.50
2022-10-11T22:43:53.715Z,101683.63
2022-10-11T22:46:20.202Z,101683.78
2022-10-11T22:48:46.685Z,101678.91
2022-10-11T22:51:13.645Z,101680.78
2022-10-11T22:53:40.083Z,101674.66
2022-10-11T22:56:06.870Z,101685.13
2022-10-11T22:58:33.392Z,101681.66
2022-10-11T23:01:09.735Z,101691.16
2022-10-11T23:03:36.742Z,101694.47
2022-10-11T23:06:03.298Z,101692.53
2022-10-11T23:08:29.745Z,101699.03
2022-10-11T23:10:56.329Z,101703.28
2022-10-11T23:13:22.769Z,101700.16
2022-10-11T23:15:49.323Z,101690.78
2022-10-11T23:18:16.448Z,101694.47
2022-10-11T23:20:42.886Z,101700.72
2022-10-11T23:23:09.308Z,101692.28
2022-10-11T23:25:35.780Z,101690.28
2022-10-11T23:28:02.398Z,101701.63
2022-10-11T23:30:29.508Z,101696.72
2022-10-11T23:32:55.999Z,101697.28
2022-10-11T23:35:22.578Z,101694.38
2022-10-11T23:37:49.006Z,101694.47
2022-10-11T23:40:15.630Z,101690.41
2022-10-11T23:42:42.063Z,101694.72
2022-10-11T23:45:08.991Z,101681.38
2022-10-11T23:47:35.698Z,101684.59
2022-10-11T23:50:02.253Z,101691.09
2022-10-11T23:52:28.687Z,101694.09
2022-10-11T23:54:56.194Z,101687.94
2022-10-11T23:57:22.668Z,101695.53
2022-10-11T23:59:49.135Z,101701.63
